Time;durP1;ratioP1;P1;durP2;ratioP2;P2;SDS_P1;SDS_P2;PMS_P1;PMS_P2;Temp;Humidity;BMP_temperature;BMP_pressure;BME280_temperature;BME280_humidity;BME280_pressure;Samples;Min_cycle;Max_cycle;Signal;HPM_P1;HPM_P2
2021/04/14 00:01:42;;;;;;;8.05;6.82;;;2.50;69.00;;;0.58;67.04;97019.91;4945572;28;20121;-71
2021/04/14 00:04:08;;;;;;;7.70;6.63;;;2.50;68.90;;;0.55;67.46;97013.16;4947019;28;20090;-71
2021/04/14 00:06:35;;;;;;;7.35;6.20;;;2.50;68.70;;;0.54;67.50;97013.28;4927857;28;20616;-72
2021/04/14 00:09:00;;;;;;;7.43;6.05;;;2.40;68.60;;;0.51;67.23;97013.50;4952401;28;20399;-72
2021/04/14 00:11:26;;;;;;;6.80;6.10;;;2.40;68.70;;;0.52;67.81;97009.97;4936718;28;20085;-71
2021/04/14 00:13:52;;;;;;;10.20;7.03;;;2.50;68.80;;;0.49;67.60;97016.19;4936760;28;20042;-72
2021/04/14 00:16:21;;;;;;;10.18;5.93;;;2.40;68.70;;;0.48;67.76;97004.19;4952050;28;20069;-71
2021/04/14 00:18:47;;;;;;;7.30;6.22;;;2.40;68.90;;;0.45;67.61;96999.19;4969230;28;20528;-71
2021/04/14 00:21:13;;;;;;;9.18;6.07;;;2.40;68.70;;;0.45;67.30;97006.13;4968299;28;20145;-71
2021/04/14 00:23:40;;;;;;;9.73;6.75;;;2.40;68.70;;;0.40;67.96;97000.44;4967724;28;20367;-70
2021/04/14 00:26:06;;;;;;;9.23;6.18;;;2.40;68.80;;;0.36;67.34;96999.81;4952214;28;20042;-71
2021/04/14 00:28:32;;;;;;;8.32;6.13;;;2.30;68.80;;;0.33;67.41;97002.63;4969277;28;20524;-71
2021/04/14 00:30:58;;;;;;;8.98;6.05;;;2.30;68.80;;;0.32;67.70;97000.97;4936637;28;20046;-72
2021/04/14 00:33:24;;;;;;;7.90;6.20;;;2.20;69.00;;;0.31;67.67;97001.91;4952143;28;20081;-69
2021/04/14 00:35:50;;;;;;;8.18;5.90;;;2.20;69.20;;;0.30;67.40;97002.81;4951962;28;20123;-73
2021/04/14 00:38:18;;;;;;;8.35;6.50;;;2.20;69.00;;;0.29;67.67;97004.59;4935740;28;20034;-72
2021/04/14 00:40:46;;;;;;;8.55;5.90;;;2.20;69.10;;;0.27;68.05;97006.44;4936649;28;20035;-72
2021/04/14 00:43:13;;;;;;;7.50;5.70;;;2.20;69.10;;;0.26;67.60;97007.38;4932075;29;20031;-72
2021/04/14 00:45:39;;;;;;;9.27;5.72;;;2.20;68.90;;;0.26;67.58;97001.38;4981368;28;20035;-72
2021/04/14 00:48:06;;;;;;;10.25;6.00;;;2.10;69.10;;;0.23;67.54;96999.00;4966819;28;20465;-70
2021/04/14 00:50:32;;;;;;;7.75;5.68;;;2.10;69.20;;;0.21;67.91;97001.66;4967898;28;20639;-73
2021/04/14 00:52:57;;;;;;;7.50;5.95;;;2.20;69.10;;;0.18;68.07;96995.88;4943824;28;20038;-72
2021/04/14 00:55:25;;;;;;;7.07;5.53;;;2.10;69.00;;;0.18;67.96;97001.88;4951441;28;20057;-70
2021/04/14 00:57:51;;;;;;;7.45;5.60;;;2.10;69.00;;;0.16;67.67;96997.75;4950978;28;20497;-72
2021/04/14 01:00:41;;;;;;;7.82;5.70;;;2.10;68.60;;;0.14;69.25;96995.25;4951567;28;20038;-72
2021/04/14 01:03:18;;;;;;;9.50;6.07;;;2.10;68.70;;;0.09;68.67;96992.16;4936485;28;20560;-72
2021/04/14 01:05:44;;;;;;;8.63;5.57;;;2.10;68.40;;;0.07;67.65;96994.03;4967717;28;20054;-72
2021/04/14 01:08:09;;;;;;;7.18;5.38;;;2.10;68.40;;;0.07;67.60;96988.03;4967156;28;20580;-72
2021/04/14 01:10:35;;;;;;;7.28;5.30;;;2.00;68.50;;;0.07;67.54;96995.78;4931296;28;20122;-72
2021/04/14 01:13:01;;;;;;;6.70;5.15;;;2.10;68.60;;;0.07;67.83;96982.84;4949719;28;20108;-71
2021/04/14 01:15:37;;;;;;;7.13;5.25;;;2.10;68.90;;;0.06;67.75;96996.72;4962627;28;20189;-71
2021/04/14 01:18:04;;;;;;;10.25;5.88;;;2.10;69.00;;;0.07;68.14;96988.03;4940397;28;20047;-71
2021/04/14 01:20:30;;;;;;;6.28;5.28;;;2.10;69.00;;;0.04;67.82;96983.06;4951031;28;20383;-72
2021/04/14 01:22:56;;;;;;;7.65;6.13;;;2.00;69.00;;;0.06;67.92;96981.19;4934968;28;20120;-72
2021/04/14 01:25:30;;;;;;;8.55;5.85;;;2.10;69.10;;;0.08;68.79;96985.34;4935944;28;20460;-71
2021/04/14 01:27:56;;;;;;;8.13;6.03;;;2.10;68.90;;;0.10;68.05;96988.63;4966158;28;20063;-72
2021/04/14 01:30:24;;;;;;;10.13;6.13;;;2.10;69.20;;;0.13;68.03;96982.44;4951823;28;20043;-71
2021/04/14 01:32:50;;;;;;;10.73;5.60;;;2.10;68.80;;;0.17;68.15;96983.88;4951296;28;20043;-72
2021/04/14 01:35:16;;;;;;;9.50;6.30;;;2.20;69.10;;;0.17;68.30;96987.28;4950626;28;20085;-72
2021/04/14 01:37:42;;;;;;;10.13;5.97;;;2.20;69.10;;;0.19;68.37;96989.78;4966344;28;20512;-74
2021/04/14 01:40:09;;;;;;;7.82;5.70;;;2.20;68.70;;;0.19;68.08;96987.19;4951280;28;20062;-72
2021/04/14 01:42:36;;;;;;;7.63;6.13;;;2.20;68.80;;;0.18;68.21;96991.53;4965323;28;20172;-72
2021/04/14 01:45:03;;;;;;;12.57;6.13;;;2.20;68.60;;;0.17;68.28;96987.28;4950238;28;20041;-72
2021/04/14 01:47:29;;;;;;;9.70;5.70;;;2.20;68.70;;;0.17;68.06;96981.28;4934536;28;20066;-72
2021/04/14 01:49:54;;;;;;;8.77;6.07;;;2.10;68.70;;;0.18;68.17;96990.69;4947173;28;20071;-71
2021/04/14 01:52:20;;;;;;;7.80;5.90;;;2.20;68.70;;;0.18;68.10;96985.53;4942390;28;20452;-74
2021/04/14 01:54:46;;;;;;;7.60;6.07;;;2.30;68.70;;;0.19;68.04;96992.34;4946014;28;20442;-71
2021/04/14 01:57:11;;;;;;;8.27;5.80;;;2.20;68.60;;;0.20;68.04;96983.66;4950531;28;20433;-72
2021/04/14 01:59:37;;;;;;;8.07;6.07;;;2.20;68.60;;;0.20;68.06;96984.50;4934133;28;20030;-73
2021/04/14 02:02:04;;;;;;;6.75;5.30;;;2.20;68.70;;;0.24;68.17;96990.31;4934017;28;20058;-70
2021/04/14 02:04:30;;;;;;;8.75;5.63;;;2.30;68.40;;;0.26;68.42;96988.44;4934278;28;20035;-72
2021/04/14 02:06:56;;;;;;;8.23;5.90;;;2.30;68.40;;;0.27;67.84;96983.16;4934544;28;20335;-73
2021/04/14 02:09:22;;;;;;;6.70;5.22;;;2.30;68.70;;;0.28;68.14;96981.41;4950847;28;20038;-72
2021/04/14 02:11:47;;;;;;;7.47;5.30;;;2.30;68.50;;;0.29;68.22;96983.06;4950048;28;20428;-72
2021/04/14 02:14:13;;;;;;;7.25;5.55;;;2.30;68.80;;;0.31;68.01;96981.19;4932888;28;20062;-72
2021/04/14 02:16:39;;;;;;;7.88;5.60;;;2.40;68.60;;;0.32;67.94;96977.66;4950060;28;20042;-72
2021/04/14 02:19:05;;;;;;;9.65;5.63;;;2.40;68.40;;;0.31;68.52;96981.19;4938144;28;20114;-72
2021/04/14 02:21:31;;;;;;;9.02;6.88;;;2.40;68.50;;;0.33;68.07;96979.31;4966468;28;20039;-72
2021/04/14 02:23:58;;;;;;;13.27;8.35;;;2.40;68.40;;;0.36;68.61;96973.94;4965479;28;20043;-72
2021/04/14 02:26:24;;;;;;;10.60;8.05;;;2.50;69.10;;;0.37;68.79;96975.59;4966101;28;20401;-72
2021/04/14 02:28:50;;;;;;;19.00;11.57;;;2.40;69.90;;;0.38;68.67;96972.06;4950025;28;20460;-72
2021/04/14 02:31:29;;;;;;;13.85;10.32;;;2.40;70.00;;;0.39;68.86;96973.72;4950393;28;20109;-72
2021/04/14 02:33:58;;;;;;;8.65;6.53;;;2.40;69.40;;;0.39;68.80;96968.56;4965797;28;20497;-71
2021/04/14 02:36:23;;;;;;;9.52;6.10;;;2.40;69.00;;;0.34;68.79;96970.63;4966483;28;20109;-72
2021/04/14 02:38:49;;;;;;;8.35;5.45;;;2.30;69.00;;;0.34;68.62;96965.47;4950313;28;20035;-71
2021/04/14 02:41:15;;;;;;;7.50;5.57;;;2.40;68.80;;;0.31;68.64;96965.66;4931279;29;20042;-69
2021/04/14 02:43:41;;;;;;;8.05;5.60;;;2.30;68.90;;;0.27;68.42;96969.41;4974534;28;20521;-71
2021/04/14 02:46:06;;;;;;;7.35;5.80;;;2.30;69.10;;;0.26;68.71;96971.16;4933891;28;20654;-72
2021/04/14 02:48:32;;;;;;;16.83;10.43;;;2.30;69.20;;;0.27;68.83;96964.22;4934242;28;20536;-71
2021/04/14 02:50:58;;;;;;;20.13;13.30;;;2.30;70.60;;;0.27;69.06;96967.63;4965497;28;20472;-71
2021/04/14 02:53:24;;;;;;;12.40;9.55;;;2.30;70.60;;;0.27;68.89;96956.47;4955625;28;20116;-69
2021/04/14 02:55:49;;;;;;;8.85;5.90;;;2.30;70.00;;;0.29;68.75;96964.94;4963086;28;20432;-72
2021/04/14 02:58:15;;;;;;;7.78;6.00;;;2.40;69.20;;;0.28;69.10;96968.47;4949701;28;20035;-72
2021/04/14 03:00:41;;;;;;;8.70;5.72;;;2.30;69.00;;;0.27;68.90;96964.22;4948955;28;20093;-72
2021/04/14 03:03:06;;;;;;;9.20;5.63;;;2.30;69.10;;;0.27;68.77;96966.81;4950703;28;20392;-70
2021/04/14 03:05:34;;;;;;;7.90;5.60;;;2.30;69.10;;;0.26;68.83;96963.41;4933925;28;20051;-69
2021/04/14 03:08:00;;;;;;;7.05;5.40;;;2.30;68.90;;;0.24;68.91;96969.63;4930026;28;20130;-72
2021/04/14 03:10:27;;;;;;;7.93;5.38;;;2.30;68.80;;;0.22;69.11;96958.50;4951866;28;20586;-72
2021/04/14 03:12:53;;;;;;;9.05;6.70;;;2.30;68.90;;;0.19;68.79;96961.31;4927645;28;20047;-72
2021/04/14 03:15:26;;;;;;;9.55;6.28;;;2.30;69.10;;;0.18;69.88;96960.47;4949105;28;20494;-72
2021/04/14 03:17:51;;;;;;;8.05;6.18;;;2.30;69.00;;;0.16;69.20;96966.69;4932727;28;20039;-71
2021/04/14 03:20:17;;;;;;;8.43;5.75;;;2.20;69.20;;;0.13;69.25;96956.56;4948751;28;20533;-72
2021/04/14 03:22:43;;;;;;;8.85;6.45;;;2.20;69.50;;;0.07;69.40;96957.81;4947816;28;20035;-71
2021/04/14 03:25:10;;;;;;;9.60;6.93;;;2.10;70.30;;;0.08;69.21;96954.28;4936978;28;20114;-73
2021/04/14 03:27:36;;;;;;;8.80;6.22;;;2.10;69.90;;;0.08;69.26;96953.47;4932120;28;20034;-73
2021/04/14 03:30:06;;;;;;;7.03;5.78;;;2.10;69.90;;;0.07;69.50;96946.63;4937804;28;20039;-73
2021/04/14 03:32:32;;;;;;;8.57;5.88;;;2.10;69.80;;;0.08;69.08;96953.47;4918134;28;20309;-72
2021/04/14 03:34:58;;;;;;;7.32;5.88;;;2.10;69.70;;;0.05;69.48;96946.75;4972031;28;20030;-71
2021/04/14 03:37:24;;;;;;;9.15;6.15;;;2.10;69.90;;;0.05;69.56;96951.91;4950304;28;20035;-72
2021/04/14 03:39:50;;;;;;;7.93;6.03;;;2.10;69.90;;;0.03;69.13;96950.38;4948846;28;20055;-72
2021/04/14 03:42:15;;;;;;;9.75;6.05;;;2.10;70.00;;;0.03;68.94;96950.38;4948774;28;20050;-72
2021/04/14 03:44:41;;;;;;;7.10;5.57;;;2.00;69.90;;;0.03;69.23;96951.19;4960954;28;20054;-73
2021/04/14 03:47:07;;;;;;;10.60;5.72;;;2.10;70.00;;;0.01;69.19;96939.31;4948820;28;20035;-72
2021/04/14 03:49:34;;;;;;;8.73;5.93;;;2.00;70.10;;;-0.03;69.21;96944.66;4949727;28;20500;-73
2021/04/14 03:52:01;;;;;;;7.80;5.97;;;2.00;70.10;;;-0.06;69.43;96942.28;4932661;28;20106;-73
2021/04/14 03:54:27;;;;;;;8.85;6.55;;;2.00;70.20;;;-0.08;69.34;96940.72;4950788;28;20045;-75
2021/04/14 03:56:52;;;;;;;8.07;5.90;;;2.00;70.10;;;-0.13;69.33;96940.22;4935702;28;20552;-75
2021/04/14 03:59:18;;;;;;;9.65;6.07;;;1.90;70.00;;;-0.18;69.39;96943.09;4966530;28;20067;-74
2021/04/14 04:01:44;;;;;;;8.00;5.70;;;1.80;70.20;;;-0.24;69.44;96948.66;4948763;28;20130;-76
2021/04/14 04:04:10;;;;;;;8.65;6.18;;;1.70;70.60;;;-0.29;69.43;96945.56;4933696;28;20427;-74
2021/04/14 04:06:36;;;;;;;9.75;6.00;;;1.70;70.60;;;-0.36;69.73;96950.31;4934889;28;20074;-73
2021/04/14 04:09:02;;;;;;;9.23;6.28;;;1.60;70.80;;;-0.43;69.80;96943.91;4936702;28;20069;-72
2021/04/14 04:11:28;;;;;;;9.18;6.25;;;1.60;71.30;;;-0.45;70.07;96952.69;4953145;28;20127;-75
2021/04/14 04:13:56;;;;;;;10.25;6.40;;;1.60;71.30;;;-0.47;69.98;96946.75;4935673;28;20066;-72
2021/04/14 04:16:22;;;;;;;9.73;6.20;;;1.60;71.30;;;-0.50;69.83;96947.78;4941459;28;20045;-75
2021/04/14 04:18:49;;;;;;;8.63;5.80;;;1.50;71.40;;;-0.53;70.09;96953.16;4944066;28;20031;-74
2021/04/14 04:21:15;;;;;;;9.45;6.30;;;1.40;71.70;;;-0.56;69.93;96949.97;4937446;28;20043;-74
2021/04/14 04:23:40;;;;;;;9.15;6.82;;;1.40;71.60;;;-0.60;69.91;96948.50;4933099;29;20483;-71
2021/04/14 04:26:06;;;;;;;15.13;10.80;;;1.40;71.70;;;-0.63;70.37;96950.38;4956534;28;20486;-73
2021/04/14 04:28:33;;;;;;;13.73;10.35;;;1.30;72.10;;;-0.68;70.48;96949.84;4935554;28;20489;-74
2021/04/14 04:30:59;;;;;;;12.32;8.73;;;1.20;72.10;;;-0.73;70.26;96949.28;4920441;28;20069;-74
2021/04/14 04:33:25;;;;;;;10.18;7.50;;;1.10;72.70;;;-0.77;70.56;96947.84;4936540;28;20054;-75
2021/04/14 04:35:50;;;;;;;9.18;6.82;;;1.20;72.40;;;-0.79;70.39;96947.09;4935862;28;20039;-74
2021/04/14 04:38:16;;;;;;;12.05;7.53;;;1.10;72.40;;;-0.81;70.68;96948.13;4935944;28;20062;-74
2021/04/14 04:40:42;;;;;;;11.25;7.47;;;1.10;72.20;;;-0.81;70.46;96951.53;4935969;28;20516;-74
2021/04/14 04:43:08;;;;;;;14.18;8.07;;;1.20;72.00;;;-0.82;70.50;96947.31;4952463;28;20131;-74
2021/04/14 04:45:34;;;;;;;12.07;7.57;;;1.20;71.70;;;-0.82;70.62;96962.81;4932472;29;20035;-73
2021/04/14 04:48:00;;;;;;;11.13;7.53;;;1.20;71.60;;;-0.82;70.40;96947.31;4966182;28;20065;-74
2021/04/14 04:50:27;;;;;;;9.07;7.15;;;1.30;71.80;;;-0.78;70.31;96947.94;4935688;28;20512;-72
2021/04/14 04:53:01;;;;;;;9.27;7.03;;;1.40;71.60;;;-0.79;71.08;96946.28;4967145;28;20030;-74
2021/04/14 04:55:27;;;;;;;10.40;6.70;;;1.40;71.50;;;-0.78;70.52;96953.91;4933508;28;20114;-74
2021/04/14 04:57:53;;;;;;;12.55;7.55;;;1.40;71.50;;;-0.77;70.49;96945.25;4959672;28;20046;-73
2021/04/14 05:00:19;;;;;;;9.75;6.68;;;1.40;71.50;;;-0.76;70.78;96952.06;4955278;28;20118;-73
2021/04/14 05:02:45;;;;;;;9.85;7.10;;;1.30;71.50;;;-0.76;70.42;96957.22;4947619;28;20041;-73
2021/04/14 05:05:16;;;;;;;9.45;6.85;;;1.40;71.40;;;-0.73;71.46;96957.03;4951127;28;20114;-71
2021/04/14 05:07:42;;;;;;;;;;;1.50;71.20;;;-0.70;71.84;96956.00;4927844;29;20031;-74
2021/04/14 05:10:09;;;;;;;13.70;9.10;;;1.50;70.70;;;-0.72;70.33;96950.94;4961989;28;19922;-72
2021/04/14 05:12:34;;;;;;;12.05;7.88;;;1.50;71.20;;;-0.68;70.49;96956.72;4966456;28;20034;-73
2021/04/14 05:15:00;;;;;;;11.82;7.40;;;1.60;71.00;;;-0.67;70.86;96972.16;4958198;28;20041;-73
2021/04/14 05:17:26;;;;;;;14.32;9.18;;;1.60;71.00;;;-0.65;70.81;96956.56;4933704;28;20129;-72
2021/04/14 05:19:52;;;;;;;11.25;7.70;;;1.60;71.00;;;-0.63;70.69;96963.28;4965559;28;20102;-72
2021/04/14 05:22:17;;;;;;;10.63;7.15;;;1.60;71.30;;;-0.58;71.12;96964.72;4949250;28;20117;-70
2021/04/14 05:24:43;;;;;;;9.45;7.68;;;1.70;71.00;;;-0.52;71.16;96969.50;4935893;28;20063;-74
2021/04/14 05:27:09;;;;;;;10.20;7.47;;;1.80;71.10;;;-0.44;70.97;96956.94;4955722;28;20070;-74
2021/04/14 05:29:35;;;;;;;9.82;7.55;;;1.90;70.80;;;-0.35;71.14;96964.06;4942281;28;20047;-74
2021/04/14 05:32:01;;;;;;;10.55;7.45;;;2.00;70.40;;;-0.29;71.08;96966.25;4951701;28;20062;-73
2021/04/14 05:34:27;;;;;;;11.88;8.23;;;2.10;70.50;;;-0.20;71.02;96968.25;4957191;28;20041;-73
2021/04/14 05:36:52;;;;;;;12.60;8.43;;;2.10;70.30;;;-0.14;70.84;96960.06;4946984;28;20395;-73
2021/04/14 05:39:19;;;;;;;9.65;7.95;;;2.20;69.70;;;-0.06;70.56;96957.78;4983270;28;20038;-72
2021/04/14 05:41:45;;;;;;;12.70;8.00;;;2.20;69.40;;;0.06;70.86;96961.31;4946652;28;20046;-72
2021/04/14 05:44:10;;;;;;;13.00;8.07;;;2.40;69.20;;;0.19;70.72;96962.13;4964051;28;20022;-72
2021/04/14 05:46:36;;;;;;;12.20;7.85;;;2.60;68.70;;;0.30;70.09;96972.59;4962829;28;20073;-72
2021/04/14 05:49:02;;;;;;;11.77;8.85;;;2.70;68.00;;;0.43;70.17;96959.63;4963884;28;20061;-73
2021/04/14 05:51:29;;;;;;;11.48;7.47;;;2.90;67.80;;;0.57;70.02;96964.69;4963948;28;20493;-73
2021/04/14 05:53:55;;;;;;;11.73;8.35;;;3.00;66.50;;;0.71;69.40;96960.34;4927842;28;20058;-70
2021/04/14 05:56:22;;;;;;;12.38;7.78;;;3.10;65.40;;;0.86;69.33;96961.84;4944668;28;20465;-70
2021/04/14 05:58:48;;;;;;;15.07;8.75;;;3.30;65.40;;;0.98;68.87;96963.56;4958412;28;20035;-71
2021/04/14 06:01:16;;;;;;;12.13;8.30;;;3.40;65.00;;;1.12;68.58;96963.41;4944925;28;20350;-72
2021/04/14 06:03:42;;;;;;;9.90;7.25;;;3.60;64.00;;;1.27;67.99;96952.88;4928214;29;20031;-70
2021/04/14 06:06:08;;;;;;;10.40;7.22;;;3.70;62.50;;;1.41;67.38;96957.91;4949789;28;20461;-71
2021/04/14 06:08:33;;;;;;;9.75;7.53;;;4.00;62.30;;;1.52;67.47;96957.94;4918964;28;20129;-73
2021/04/14 06:10:59;;;;;;;13.75;8.93;;;4.00;62.20;;;1.62;67.18;96963.31;4929216;28;20079;-72
2021/04/14 06:13:26;;;;;;;11.60;7.28;;;4.10;61.80;;;1.74;66.74;96971.00;4913289;28;20031;-72
2021/04/14 06:15:52;;;;;;;10.93;7.07;;;4.30;61.30;;;1.87;66.14;96964.91;4946880;28;20035;-71
2021/04/14 06:18:18;;;;;;;9.48;6.38;;;4.40;61.40;;;2.00;66.53;96965.63;4945688;28;20548;-71
2021/04/14 06:20:44;;;;;;;9.20;6.00;;;4.60;60.90;;;2.11;65.70;96963.06;4930558;28;20039;-71
2021/04/14 06:23:16;;;;;;;8.65;6.13;;;4.60;60.10;;;2.27;64.91;96968.78;4930637;28;20071;-74
2021/04/14 06:25:53;;;;;;;7.60;5.93;;;4.70;59.60;;;2.37;65.73;96964.50;4948043;28;20030;-74
2021/04/14 06:28:19;;;;;;;7.80;5.72;;;4.90;59.50;;;2.54;65.15;96965.00;4939768;28;20043;-73
2021/04/14 06:30:45;;;;;;;9.05;5.43;;;4.90;58.50;;;2.64;64.50;96958.16;4930021;28;20054;-72
2021/04/14 06:33:11;;;;;;;9.65;5.50;;;5.00;58.40;;;2.74;63.96;96956.50;4948730;28;20097;-70
2021/04/14 06:35:37;;;;;;;8.68;5.20;;;5.00;57.60;;;2.86;63.52;96962.50;4936104;28;20050;-72
2021/04/14 06:38:04;;;;;;;8.25;5.45;;;5.30;57.10;;;3.00;63.50;96963.06;4941219;28;20142;-73
2021/04/14 06:43:39;;;;;;;10.32;7.18;;;5.60;56.70;;;3.25;61.94;96964.56;4968582;28;20081;-73
2021/04/14 06:46:24;;;;;;;10.85;6.75;;;5.70;56.80;;;3.38;61.87;96959.19;4960280;28;20413;-73
2021/04/14 06:49:18;;;;;;;9.18;5.90;;;6.00;56.50;;;3.54;60.88;96959.59;4933933;28;20034;-71
2021/04/14 06:52:10;;;;;;;10.18;6.05;;;6.20;55.00;;;3.70;61.20;96961.78;4953171;28;20062;-71
2021/04/14 06:54:55;;;;;;;9.38;5.40;;;6.40;55.10;;;3.89;60.64;96961.13;4967165;28;20090;-72
2021/04/14 06:57:47;;;;;;;8.60;4.40;;;6.60;53.80;;;4.04;61.27;96962.44;4949302;28;20038;-72
2021/04/14 07:00:31;;;;;;;7.07;3.90;;;6.80;53.00;;;4.20;59.40;96962.00;4961911;28;20054;-71
2021/04/14 07:03:38;;;;;;;9.55;3.80;;;7.00;52.40;;;4.38;59.29;96957.84;4951250;28;20038;-72
2021/04/14 07:06:05;;;;;;;4.95;2.88;;;7.10;52.10;;;4.56;60.67;96965.91;4950325;28;20428;-72
2021/04/14 07:08:37;;;;;;;5.07;2.85;;;7.50;51.60;;;4.70;59.20;96967.31;4932810;28;20073;-72
2021/04/14 07:11:03;;;;;;;8.77;3.35;;;7.60;49.90;;;4.85;60.18;96966.81;4917671;28;20039;-73
2021/04/14 07:13:35;;;;;;;6.55;3.20;;;7.80;49.70;;;5.02;59.57;96967.16;4948623;28;20401;-72
2021/04/14 07:16:43;;;;;;;7.32;2.80;;;8.00;49.20;;;5.23;56.84;96967.91;4926360;28;20126;-73
2021/04/14 07:19:18;;;;;;;6.10;2.72;;;8.20;48.10;;;5.40;58.51;96962.00;4951325;28;20023;-74
2021/04/14 07:21:50;;;;;;;5.07;3.20;;;8.50;48.50;;;5.64;57.52;96955.56;4949251;28;20058;-73
2021/04/14 07:24:34;;;;;;;5.88;2.83;;;8.70;47.50;;;5.82;56.16;96957.34;4917991;28;20050;-72
2021/04/14 07:27:37;;;;;;;9.27;3.10;;;8.80;47.50;;;6.02;56.00;96955.56;4948863;28;20034;-73
2021/04/14 07:30:15;;;;;;;6.93;3.00;;;9.00;46.40;;;6.21;55.82;96954.72;4934830;28;20394;-74
2021/04/14 07:32:54;;;;;;;5.82;2.85;;;9.30;46.20;;;6.46;55.00;96955.91;4928633;29;20368;-74
2021/04/14 07:35:34;;;;;;;6.20;3.05;;;9.60;45.60;;;6.67;54.45;96953.06;4970364;28;20109;-74
2021/04/14 07:38:36;;;;;;;6.43;3.22;;;9.70;44.80;;;6.89;55.94;96951.88;4957227;28;20069;-74
2021/04/14 07:41:38;;;;;;;5.13;2.90;;;10.00;45.50;;;7.13;54.96;96951.34;4934885;28;20061;-73
2021/04/14 07:44:15;;;;;;;6.88;2.90;;;10.30;44.50;;;7.45;54.63;96958.72;4949399;28;20035;-71
2021/04/14 07:46:44;;;;;;;6.20;3.00;;;10.60;42.60;;;7.66;56.43;96956.63;4965964;28;20027;-69
2021/04/14 07:49:10;;;;;;;6.22;3.70;;;10.70;42.90;;;7.90;56.34;96953.41;4931849;28;20039;-73
2021/04/14 07:51:36;;;;;;;8.75;3.38;;;11.00;42.30;;;8.20;55.93;96954.81;4933779;28;20536;-71
2021/04/14 07:54:22;;;;;;;7.07;2.50;;;11.30;42.50;;;8.39;51.44;96954.63;4959943;28;20129;-72
2021/04/14 07:56:52;;;;;;;6.90;2.83;;;11.10;40.70;;;8.61;53.18;96957.72;4944972;28;20023;-71
2021/04/14 07:59:35;;;;;;;6.35;3.08;;;11.70;40.20;;;8.97;49.57;96953.94;4968689;28;20469;-70
2021/04/14 08:02:03;;;;;;;7.10;3.38;;;12.10;39.30;;;9.24;52.43;96949.44;4929443;28;20036;-71
2021/04/14 08:04:31;;;;;;;4.50;2.47;;;12.10;39.80;;;9.39;52.58;96953.09;4965008;28;20054;-72
2021/04/14 08:07:26;;;;;;;5.20;2.60;;;12.30;39.80;;;9.55;48.12;96941.81;4948952;28;20043;-72
2021/04/14 08:10:25;;;;;;;6.90;2.45;;;12.30;38.90;;;9.60;47.79;96940.34;4923847;28;20097;-70
2021/04/14 08:13:05;;;;;;;5.63;2.28;;;12.30;39.10;;;9.77;48.17;96946.44;4949475;28;20039;-73
2021/04/14 08:15:44;;;;;;;4.90;2.30;;;12.60;38.70;;;9.99;47.95;96947.59;4921121;29;20039;-71
2021/04/14 08:18:28;;;;;;;5.53;2.30;;;12.60;37.70;;;10.11;45.68;96944.47;4961700;28;20039;-72
2021/04/14 08:21:13;;;;;;;9.23;2.40;;;12.70;36.60;;;10.40;45.94;96941.34;4948928;28;20133;-72
2021/04/14 08:23:41;;;;;;;4.10;1.95;;;13.30;36.50;;;10.76;48.56;96932.22;4948218;28;20042;-70
2021/04/14 08:26:16;;;;;;;5.57;2.10;;;13.80;36.10;;;10.94;45.99;96936.28;4928629;28;20449;-72
2021/04/14 08:28:47;;;;;;;5.78;2.15;;;13.60;35.80;;;10.92;48.37;96927.72;4963320;28;20061;-71
2021/04/14 08:31:35;;;;;;;5.25;1.67;;;13.60;36.00;;;11.21;43.28;96942.09;4949137;28;20122;-71
2021/04/14 08:34:28;;;;;;;4.15;1.75;;;14.20;34.80;;;11.35;42.73;96933.47;4954799;28;20042;-71
2021/04/14 08:37:19;;;;;;;3.40;2.00;;;14.40;34.50;;;11.53;43.80;96930.53;4957673;28;20038;-73
2021/04/14 08:39:52;;;;;;;3.65;1.77;;;14.60;34.10;;;11.56;42.22;96922.31;4932907;28;20426;-71
2021/04/14 08:42:24;;;;;;;4.03;1.73;;;14.20;33.00;;;11.39;43.49;96918.94;4935730;28;20405;-73
2021/04/14 08:45:18;;;;;;;7.18;2.20;;;13.60;33.30;;;11.10;44.98;96919.59;4980795;28;20052;-71
2021/04/14 08:48:07;;;;;;;5.07;2.08;;;13.70;33.60;;;11.20;42.54;96922.00;4923345;28;20042;-73
2021/04/14 08:50:37;;;;;;;4.18;1.52;;;14.10;33.70;;;11.55;43.59;96921.47;4918504;28;20044;-72
2021/04/14 08:53:09;;;;;;;3.88;1.70;;;14.80;33.40;;;11.88;41.75;96910.72;4928840;28;20039;-72
2021/04/14 08:55:38;;;;;;;6.05;1.80;;;15.20;32.30;;;12.07;42.57;96918.16;4949297;28;20620;-73
2021/04/14 08:58:04;;;;;;;4.28;1.95;;;15.20;31.70;;;12.32;44.14;96910.84;4944596;28;20122;-74
2021/04/14 09:00:29;;;;;;;4.25;1.90;;;15.60;31.70;;;12.53;43.36;96912.78;4917317;28;20859;-73
2021/04/14 09:03:04;;;;;;;4.85;2.08;;;15.60;30.80;;;12.76;39.83;96908.22;4932130;28;20046;-73
2021/04/14 09:05:30;;;;;;;5.95;3.03;;;15.80;30.80;;;12.85;43.13;96908.94;4923289;28;20031;-73
2021/04/14 09:07:56;;;;;;;6.13;2.40;;;15.60;31.20;;;12.81;42.41;96900.56;4943666;28;20177;-72
2021/04/14 09:11:00;;;;;;;6.00;1.80;;;15.50;30.20;;;12.64;38.45;96907.03;4932512;28;20038;-73
2021/04/14 09:14:04;;;;;;;7.60;1.83;;;15.20;31.50;;;12.48;37.82;96907.22;4955129;28;20027;-72
2021/04/14 09:17:15;;;;;;;4.18;1.60;;;15.10;30.50;;;12.33;38.06;96901.91;4949826;28;20090;-72
2021/04/14 09:19:48;;;;;;;5.15;2.30;;;15.40;30.20;;;12.69;38.15;96895.94;4969392;28;20034;-72
2021/04/14 09:22:30;;;;;;;7.15;4.25;;;16.10;29.40;;;13.05;38.25;96896.81;4969497;28;20043;-73
2021/04/14 09:25:04;;;;;;;11.77;5.80;;;16.20;30.50;;;13.05;37.73;96894.16;4952407;28;20148;-70
2021/04/14 09:27:44;;;;;;;3.63;2.13;;;16.20;29.00;;;13.04;37.82;96894.34;4967666;28;20046;-73
2021/04/14 09:30:29;;;;;;;4.03;1.63;;;15.90;29.60;;;12.84;36.40;96889.63;4963934;28;20038;-72
2021/04/14 09:33:06;;;;;;;3.83;2.08;;;15.40;29.30;;;12.46;37.21;96890.75;4972565;28;20038;-73
2021/04/14 09:35:32;;;;;;;5.82;1.85;;;14.60;30.00;;;12.09;40.61;96895.06;4983049;28;20409;-73
2021/04/14 09:38:51;;;;;;;3.95;1.90;;;14.00;31.00;;;11.66;38.00;96892.06;4966560;28;20049;-71
2021/04/14 09:41:33;;;;;;;5.03;1.65;;;13.60;32.40;;;11.12;38.30;96893.09;4968089;28;20432;-73
2021/04/14 09:44:37;;;;;;;4.82;1.80;;;12.80;32.90;;;10.69;38.41;96890.00;4963595;28;20125;-72
2021/04/14 09:47:29;;;;;;;10.20;2.10;;;12.60;33.20;;;10.25;39.06;96887.81;4943100;28;20019;-73
2021/04/14 09:50:16;;;;;;;5.10;1.83;;;12.10;34.20;;;9.97;40.01;96879.44;4960873;28;20517;-72
2021/04/14 09:52:51;;;;;;;4.35;1.80;;;11.90;35.30;;;9.78;40.78;96877.97;4950443;28;20062;-71
2021/04/14 09:55:44;;;;;;;6.15;2.60;;;12.00;36.10;;;9.62;41.10;96880.59;4969075;28;20042;-70
2021/04/14 09:58:41;;;;;;;4.53;2.00;;;11.70;35.50;;;9.47;40.43;96869.06;4933973;28;20051;-72
2021/04/14 10:01:33;;;;;;;4.18;1.80;;;11.70;35.40;;;9.36;39.97;96866.78;4927438;28;20125;-70
2021/04/14 10:04:01;;;;;;;5.88;2.05;;;11.70;34.30;;;9.32;40.90;96874.16;4968696;28;20323;-72
2021/04/14 10:06:27;;;;;;;3.47;1.60;;;11.70;34.40;;;9.29;41.66;96865.78;4924825;28;20046;-70
2021/04/14 10:09:25;;;;;;;7.55;2.10;;;11.60;34.00;;;9.27;39.09;96865.09;4934852;29;20130;-72
2021/04/14 10:11:51;;;;;;;2.40;1.40;;;11.80;32.90;;;9.52;41.22;96861.56;4952556;28;20043;-72
2021/04/14 10:14:22;;;;;;;2.85;1.40;;;13.40;30.90;;;10.27;39.17;96854.28;4947843;28;20038;-71
2021/04/14 10:16:50;;;;;;;4.70;1.40;;;15.10;28.50;;;11.04;39.57;96847.38;4952748;28;20023;-70
2021/04/14 10:19:27;;;;;;;2.47;1.40;;;16.60;26.10;;;11.88;36.23;96842.19;4938792;28;20514;-72
2021/04/14 10:21:53;;;;;;;3.95;1.60;;;17.90;25.70;;;12.65;39.36;96834.75;4953581;28;20054;-74
2021/04/14 10:24:19;;;;;;;3.97;1.60;;;19.20;24.70;;;13.34;38.63;96837.00;4951081;28;20078;-72
2021/04/14 10:26:53;;;;;;;3.72;1.40;;;19.10;23.40;;;13.38;32.87;96825.06;4929020;28;20046;-74
2021/04/14 10:29:41;;;;;;;3.72;1.40;;;17.70;22.10;;;13.65;32.68;96826.94;4976084;28;20042;-72
2021/04/14 10:32:12;;;;;;;3.55;1.50;;;19.40;21.90;;;14.25;37.21;96832.66;4959494;28;20051;-73
2021/04/14 10:34:38;;;;;;;3.58;1.27;;;20.90;19.90;;;14.92;36.24;96829.38;4964405;28;20041;-72
2021/04/14 10:37:15;;;;;;;4.55;1.35;;;21.70;20.40;;;15.26;30.44;96817.88;4941631;28;20046;-71
2021/04/14 10:39:41;;;;;;;2.75;1.00;;;20.60;19.40;;;14.98;34.94;96821.47;4967235;28;20041;-72
2021/04/14 10:42:20;;;;;;;3.50;1.10;;;19.10;20.10;;;14.65;30.49;96821.31;4948428;28;20043;-72
2021/04/14 10:44:46;;;;;;;2.72;1.30;;;18.10;21.10;;;14.35;33.94;96817.28;4953042;29;20649;-72
2021/04/14 10:47:33;;;;;;;4.60;1.00;;;17.50;21.20;;;14.00;28.57;96819.88;4931025;28;20039;-73
2021/04/14 10:50:24;;;;;;;2.67;1.17;;;17.00;21.10;;;14.29;30.03;96804.81;4929229;28;20039;-74